CW7345 Greenlaw SCT UK current weather conditions

sailwx.info

Wind from 161 at 1 knots gusting 18

Air temperature 12.8° C
Dewpoint 9.8° C

Last reported at 2019-Aug-21 19:55 UTC.
Time now 2019-Aug-21 20:51 UTC

Location: N 55°42' W 002°28'.
View on Google Maps.

See reports from other nearby stations

  
Tides and Currents Weather Stations Pressure Air Temp Water Temp Dewpoint Dewpoint Depression Visibility Wind Speed Wind Dir Waves Ship Positions
date/time (UTC)wind fromknots sea level pressurealtimeterstation pressurevisibilityair tempwater tempwave heightnotes
2019-Aug-21 19:55 161 1 gusting 18 12.8
2019-Aug-21 19:35 175 2 gusting 14 12.8
2019-Aug-21 19:25 162 2 gusting 12 12.8
2019-Aug-21 19:05 174 5 gusting 30 13.3
2019-Aug-21 18:55 183 2 gusting 27 13.9
2019-Aug-21 18:45 194 11 gusting 26 14.4
2019-Aug-21 18:35 171 0 gusting 18 14.4
2019-Aug-21 18:05 165 9 gusting 28 15.0
2019-Aug-21 17:45 169 10 gusting 24 15.6
2019-Aug-21 17:15 175 11 gusting 37 15.6
2019-Aug-21 17:05 144 6 gusting 18 16.1
2019-Aug-21 16:55 188 7 gusting 31 16.1
2019-Aug-21 16:45 174 3 gusting 20 16.1
2019-Aug-21 16:35 182 6 gusting 17 16.7
2019-Aug-21 16:25 194 11 gusting 30 16.7
2019-Aug-21 16:05 167 8 gusting 27 16.7
2019-Aug-21 15:25 173 4 gusting 21 16.7
2019-Aug-21 15:05 148 7 gusting 28 17.8
2019-Aug-21 14:45 177 11 gusting 32 18.3
2019-Aug-21 14:25 158 8 gusting 25 18.3
2019-Aug-21 14:15 173 6 gusting 27 18.9
2019-Aug-21 14:05 193 4 gusting 17 18.9
2019-Aug-21 13:55 212 6 gusting 26 18.9
2019-Aug-21 13:45 177 11 gusting 26 19.4
2019-Aug-21 13:35 173 11 gusting 26 19.4
2019-Aug-21 13:25 168 7 gusting 32 19.4
2019-Aug-21 13:15 194 6 gusting 26 19.4
2019-Aug-21 12:45 195 13 gusting 30 18.3
2019-Aug-21 12:35 149 8 gusting 22 18.3
2019-Aug-21 12:25 192 6 gusting 25 18.3
2019-Aug-21 12:15 176 7 gusting 27 18.3
2019-Aug-21 12:05 192 6 gusting 19 18.3
2019-Aug-21 11:55 163 6 gusting 15 18.3
2019-Aug-21 11:45 171 11 gusting 33 18.3
2019-Aug-21 11:35 174 7 gusting 20 18.9
2019-Aug-21 11:15 182 4 gusting 22 18.3
2019-Aug-21 11:05 223 7 gusting 31 18.3
2019-Aug-21 10:55 186 2 gusting 21 18.9
2019-Aug-21 10:45 191 7 gusting 26 18.3
2019-Aug-21 10:25 198 7 gusting 18 18.3
2019-Aug-21 09:55 194 5 gusting 17 17.8
2019-Aug-21 09:35 177 4 gusting 21 17.2
2019-Aug-21 09:25 186 5 gusting 19 16.7
2019-Aug-21 09:15 218 6 gusting 15 16.7
2019-Aug-21 09:05 184 4 gusting 11 15.6
2019-Aug-21 08:55 202 1 gusting 13 15.0
2019-Aug-21 08:45 135 0 gusting 10 14.4
2019-Aug-21 08:35 158 1 gusting 17 14.4
2019-Aug-21 08:15 135 13.3
2019-Aug-21 08:05 184 1 gusting 7 13.3
2019-Aug-21 07:55 180 12.8
2019-Aug-21 07:45 180 0 gusting 6 12.8
2019-Aug-21 07:35 202 2 gusting 13 12.2
2019-Aug-21 07:25 180 0 gusting 7 11.7
2019-Aug-21 07:15 180 0 gusting 6 11.7
2019-Aug-21 06:25 206 9.4
2019-Aug-21 06:05 292 8.9
2019-Aug-21 05:55 292 8.9
2019-Aug-21 05:35 292 8.3
2019-Aug-21 05:25 292 7.8
2019-Aug-21 05:15 292 7.8
2019-Aug-21 05:05 292 7.8
2019-Aug-21 04:55 292 8.3
2019-Aug-21 04:35 292 8.3
2019-Aug-21 04:05 292 8.3
2019-Aug-21 03:55 292 8.3
2019-Aug-21 03:45 292 8.3
2019-Aug-21 03:35 292 8.3
2019-Aug-21 03:15 292 8.3
2019-Aug-21 02:55 292 7.8
2019-Aug-21 02:45 292 7.8
2019-Aug-21 02:35 292 7.2
2019-Aug-21 02:15 292 6.7
2019-Aug-21 02:05 292 6.7
2019-Aug-21 01:45 292 6.7
2019-Aug-21 01:15 292 6.7
2019-Aug-21 00:55 292 6.7
2019-Aug-21 00:45 289 6.7
2019-Aug-21 00:25 270 7.2
2019-Aug-21 00:05 270 7.8
2019-Aug-20 23:55 270 7.8
2019-Aug-20 23:45 270 7.8
2019-Aug-20 23:25 270 8.3
2019-Aug-20 23:15 270 8.3
2019-Aug-20 23:05 257 8.3
2019-Aug-20 22:35 202 8.9
2019-Aug-20 22:25 202 8.9
2019-Aug-20 22:15 202 8.9
2019-Aug-20 21:55 202 9.4
2019-Aug-20 21:25 202 10.0
2019-Aug-20 21:15 205 10.6
2019-Aug-20 21:05 248 10.6
2019-Aug-20 20:55 225 10.6
2019-Aug-20 20:45 203 0 gusting 2 11.1
2019-Aug-20 20:35 239 11.1
2019-Aug-20 20:25 202 0 gusting 5 11.1
2019-Aug-20 20:15 202 11.7
2019-Aug-20 19:55 202 12.2
2019-Aug-20 19:35 181 12.8
2019-Aug-20 19:25 211 1 gusting 7 12.8
2019-Aug-20 19:15 202 13.3
2019-Aug-20 19:05 225 13.3
2019-Aug-20 18:55 225 13.9
2019-Aug-20 18:45 158 13.9
2019-Aug-20 18:15 233 14.4
2019-Aug-20 18:05 220 14.4
2019-Aug-20 17:45 196 0 gusting 5 14.4
2019-Aug-20 17:25 171 0 gusting 10 14.4
2019-Aug-20 17:05 267 1 gusting 13 14.4
2019-Aug-20 16:55 199 0 gusting 6 14.4
2019-Aug-20 16:45 212 0 gusting 6 15.0
2019-Aug-20 16:35 112 15.0
2019-Aug-20 16:25 068 14.4
2019-Aug-20 16:15 112 14.4
2019-Aug-20 16:05 112 15.0
2019-Aug-20 15:55 108 15.0
2019-Aug-20 15:45 112 0 gusting 4 15.6
2019-Aug-20 15:25 121 2 gusting 6 16.7
2019-Aug-20 15:15 196 0 gusting 4 17.2
2019-Aug-20 14:45 289 15.6
2019-Aug-20 14:35 180 15.6
2019-Aug-20 14:25 202 16.1
2019-Aug-20 14:15 242 16.1
2019-Aug-20 14:05 202 0 gusting 4 17.2
2019-Aug-20 13:55 193 1 gusting 6 17.8
2019-Aug-20 13:45 143 0 gusting 10 18.3
2019-Aug-20 13:35 226 18.9
2019-Aug-20 13:25 192 2 gusting 10 18.9
2019-Aug-20 13:15 202 4 gusting 13 18.3
2019-Aug-20 13:05 200 2 gusting 11 18.3
2019-Aug-20 12:55 204 2 gusting 13 17.8
2019-Aug-20 12:45 210 2 gusting 6 17.2
2019-Aug-20 12:35 173 17.2
2019-Aug-20 12:25 247 16.7
2019-Aug-20 12:15 135 16.7
2019-Aug-20 12:05 230 16.7
2019-Aug-20 11:55 200 17.2
2019-Aug-20 11:45 180 17.2
2019-Aug-20 11:35 262 17.2
2019-Aug-20 11:15 269 17.8
2019-Aug-20 10:45 220 0 gusting 6 17.8
2019-Aug-20 10:35 202 17.8
2019-Aug-20 10:25 220 17.8
2019-Aug-20 10:15 210 0 gusting 6 17.2
2019-Aug-20 10:05 212 0 gusting 6 16.7
2019-Aug-20 09:55 225 1 gusting 6 15.6
2019-Aug-20 09:45 191 0 gusting 4 15.6
2019-Aug-20 09:25 182 0 gusting 2 15.6
2019-Aug-20 09:15 277 15.6
2019-Aug-20 09:05 158 15.0
2019-Aug-20 08:55 180 14.4
2019-Aug-20 08:45 185 13.9
2019-Aug-20 08:35 180 13.3
2019-Aug-20 08:25 244 13.3
2019-Aug-20 08:15 158 13.3
2019-Aug-20 07:55 168 12.8
2019-Aug-20 07:45 247 12.8
2019-Aug-20 07:35 194 0 gusting 6 12.2
2019-Aug-20 07:25 202 12.2
2019-Aug-20 07:15 226 12.2
2019-Aug-20 07:05 240 11.7
2019-Aug-20 06:55 180 0 gusting 2 11.7
2019-Aug-20 06:45 292 11.1
2019-Aug-20 06:35 218 11.1
2019-Aug-20 06:15 270 10.6
2019-Aug-20 06:05 225 10.6
2019-Aug-20 05:45 225 10.6
2019-Aug-20 05:35 225 10.6
2019-Aug-20 05:15 225 10.6
2019-Aug-20 05:05 225 10.6
2019-Aug-20 04:45 233 10.6
2019-Aug-20 04:35 202 10.6
2019-Aug-20 04:25 225 10.6
2019-Aug-20 04:05 236 10.0
2019-Aug-20 03:55 270 10.0
2019-Aug-20 03:45 270 10.0
2019-Aug-20 03:35 270 10.0
2019-Aug-20 03:25 270 10.0
2019-Aug-20 03:15 270 10.0
2019-Aug-20 03:05 270 10.0
2019-Aug-20 02:55 270 10.0
2019-Aug-20 02:45 270 10.0
2019-Aug-20 02:05 202 10.6
2019-Aug-20 01:55 227 10.6
2019-Aug-20 01:45 229 10.6
2019-Aug-20 01:35 186 10.6
2019-Aug-20 01:25 180 10.6
2019-Aug-20 01:15 270 10.6
2019-Aug-20 00:35 202 10.6
2019-Aug-20 00:25 202 11.1
2019-Aug-20 00:15 215 11.1
2019-Aug-20 00:05 189 0 gusting 7 11.1
2019-Aug-19 23:45 203 0 gusting 6 11.1
2019-Aug-19 23:35 191 1 gusting 11 11.1
2019-Aug-19 23:25 201 0 gusting 6 11.1
2019-Aug-19 23:15 278 1 gusting 7 11.1
2019-Aug-19 23:05 214 11.1
2019-Aug-19 22:55 207 10.6
2019-Aug-19 22:45 195 0 gusting 14 10.6
2019-Aug-19 22:25 185 1 gusting 13 10.6
2019-Aug-19 22:05 188 10.0
2019-Aug-19 21:55 200 0 gusting 7 10.0
2019-Aug-19 21:45 183 10.0
2019-Aug-19 21:35 202 10.0
2019-Aug-19 21:25 236 10.0
2019-Aug-19 21:05 202 10.6
2019-Aug-19 20:55 185 10.6
2019-Aug-19 20:35 183 11.1
2019-Aug-19 20:15 225 11.7
2019-Aug-19 20:05 203 11.7